createdAt,value
2022-12-04T00:01:30.468Z,101182.69
2022-12-04T00:04:01.474Z,101200.13
2022-12-04T00:06:31.713Z,101197.47
2022-12-04T00:09:00.693Z,101202.75
2022-12-04T00:11:32.594Z,101197.69
2022-12-04T00:14:06.920Z,101197.84
2022-12-04T00:16:36.145Z,101203.88
2022-12-04T00:19:05.125Z,101210.09
2022-12-04T00:21:35.245Z,101209.88
2022-12-04T00:24:04.216Z,101215.03
2022-12-04T00:26:32.777Z,101214.22
2022-12-04T00:29:01.945Z,101210.88
2022-12-04T00:31:32.149Z,101206.72
2022-12-04T00:34:02.159Z,101198.78
2022-12-04T00:36:31.885Z,101215.25
2022-12-04T00:39:02.969Z,101215.44
2022-12-04T00:41:33.454Z,101221.72
2022-12-04T00:44:03.130Z,101214.94
2022-12-04T00:46:32.328Z,101212.38
2022-12-04T00:49:02.746Z,101207.25
2022-12-04T00:51:31.992Z,101217.53
2022-12-04T00:54:02.249Z,101208.19
2022-12-04T00:56:30.936Z,101208.16
2022-12-04T00:59:01.264Z,101197.53
2022-12-04T01:01:31.462Z,101200.03
2022-12-04T01:04:00.223Z,101201.69
2022-12-04T01:06:30.475Z,101198.19
2022-12-04T01:09:02.127Z,101191.22
2022-12-04T01:11:32.137Z,101200.03
2022-12-04T01:14:01.646Z,101200.19
2022-12-04T01:16:32.642Z,101194.88
2022-12-04T01:19:01.436Z,101194.81
2022-12-04T01:21:30.030Z,101200.75
2022-12-04T01:23:59.707Z,101194.66
2022-12-04T01:26:30.189Z,101203.44
2022-12-04T01:28:59.171Z,101206.25
2022-12-04T01:31:28.066Z,101207.09
2022-12-04T01:33:56.897Z,101199.44
2022-12-04T01:36:27.309Z,101192.47
2022-12-04T01:38:57.101Z,101194.06
2022-12-04T01:41:32.028Z,101189.69
2022-12-04T01:44:12.528Z,101189.75
2022-12-04T01:46:41.725Z,101186.97
2022-12-04T01:49:13.787Z,101178.31
2022-12-04T01:51:45.820Z,101186.97
2022-12-04T01:54:21.217Z,101186.47
2022-12-04T01:56:54.312Z,101179.47
2022-12-04T01:59:27.791Z,101180.28
2022-12-04T02:02:00.907Z,101170.78
2022-12-04T02:04:29.982Z,101170.81
2022-12-04T02:06:58.577Z,101171.78
2022-12-04T02:09:28.301Z,101171.03
2022-12-04T02:12:07.812Z,101168.28
2022-12-04T02:14:51.819Z,101170.03
2022-12-04T02:17:28.621Z,101163.81
2022-12-04T02:20:16.561Z,101140.16
2022-12-04T02:23:20.498Z,101155.13
2022-12-04T02:26:00.629Z,101156.13
2022-12-04T02:28:39.753Z,101160.59
2022-12-04T02:31:14.385Z,101146.53
2022-12-04T02:33:46.418Z,101148.56
2022-12-04T02:36:23.840Z,101116.78
2022-12-04T02:38:57.976Z,101130.00
2022-12-04T02:41:32.622Z,101129.88
2022-12-04T02:44:08.569Z,101136.69
2022-12-04T02:46:40.989Z,101130.72
2022-12-04T02:49:15.628Z,101125.53
2022-12-04T02:51:47.150Z,101130.91
2022-12-04T02:54:28.342Z,101120.53
2022-12-04T02:56:57.624Z,101120.56
2022-12-04T02:59:33.058Z,101115.44
2022-12-04T03:02:10.178Z,101130.06
2022-12-04T03:04:40.818Z,101121.34
2022-12-04T03:07:14.420Z,101115.25
2022-12-04T03:09:48.317Z,101115.34
2022-12-04T03:12:25.282Z,101099.47
2022-12-04T03:15:00.634Z,101125.88
2022-12-04T03:17:34.346Z,101127.75
2022-12-04T03:20:09.609Z,101117.31
2022-12-04T03:22:41.521Z,101127.78
2022-12-04T03:25:11.487Z,101118.09
2022-12-04T03:27:48.241Z,101125.13
2022-12-04T03:30:21.905Z,101127.69
2022-12-04T03:32:54.233Z,101118.75
2022-12-04T03:35:26.290Z,101117.84
2022-12-04T03:38:01.778Z,101116.31
2022-12-04T03:40:36.578Z,101119.72
2022-12-04T03:43:13.313Z,101120.69
2022-12-04T03:45:49.080Z,101118.16
2022-12-04T03:48:23.854Z,101020.03
2022-12-04T03:50:59.643Z,101125.78
2022-12-04T03:53:34.686Z,101118.25
2022-12-04T03:56:11.060Z,101120.25
2022-12-04T03:58:45.435Z,101132.91
2022-12-04T04:01:18.313Z,101131.19
2022-12-04T04:03:50.662Z,101119.81
2022-12-04T04:06:23.653Z,101120.81
2022-12-04T04:08:56.873Z,101133.19
2022-12-04T04:11:35.407Z,101113.81
2022-12-04T04:14:25.704Z,101126.06
2022-12-04T04:17:18.029Z,101130.50
2022-12-04T04:20:10.733Z,101123.38
2022-12-04T04:22:58.348Z,101127.78
2022-12-04T04:25:28.895Z,101130.50
2022-12-04T04:27:59.917Z,101131.47
2022-12-04T04:30:32.364Z,101065.66
2022-12-04T04:33:09.176Z,101122.16
2022-12-04T04:35:48.925Z,101135.84
2022-12-04T04:38:27.403Z,101147.28
2022-12-04T04:41:00.730Z,101138.59
2022-12-04T04:43:34.869Z,101135.72
2022-12-04T04:46:11.173Z,101127.28
2022-12-04T04:48:44.016Z,101124.75
2022-12-04T04:51:12.776Z,101133.66
2022-12-04T04:53:46.661Z,101124.84
2022-12-04T04:56:16.332Z,101129.84
2022-12-04T04:58:45.436Z,101123.78
2022-12-04T05:01:17.618Z,101124.72
2022-12-04T05:03:48.021Z,101129.19
2022-12-04T05:06:16.833Z,101127.38
2022-12-04T05:08:45.440Z,101128.31
2022-12-04T05:11:15.971Z,101127.41
2022-12-04T05:13:45.109Z,101128.09
2022-12-04T05:16:15.568Z,101133.31
2022-12-04T05:19:04.625Z,101122.28
2022-12-04T05:21:34.502Z,101115.25
2022-12-04T05:24:03.099Z,101112.69
2022-12-04T05:26:31.714Z,101109.06
2022-12-04T05:29:00.388Z,101111.81
2022-12-04T05:31:29.028Z,101105.53
2022-12-04T05:33:58.660Z,101102.97
2022-12-04T05:36:27.325Z,101116.09
2022-12-04T05:38:57.289Z,101107.53
2022-12-04T05:41:26.139Z,101102.13
2022-12-04T05:43:54.767Z,101111.59
2022-12-04T05:46:23.506Z,101116.94
2022-12-04T05:48:52.135Z,101123.97
2022-12-04T05:51:20.822Z,101122.34
2022-12-04T05:53:52.379Z,101119.78
2022-12-04T05:56:22.852Z,101115.97
2022-12-04T05:58:51.484Z,101113.31
2022-12-04T06:01:23.863Z,101112.75
2022-12-04T06:03:52.551Z,101114.66
2022-12-04T06:06:23.458Z,101118.22
2022-12-04T06:08:53.726Z,101120.69
2022-12-04T06:11:25.463Z,101118.84
2022-12-04T06:13:54.223Z,101112.88
2022-12-04T06:16:26.683Z,101114.81
2022-12-04T06:18:57.315Z,101111.16
2022-12-04T06:21:29.227Z,101117.16
2022-12-04T06:23:58.254Z,101111.16
2022-12-04T06:26:28.649Z,101104.28
2022-12-04T06:28:58.119Z,101107.00
2022-12-04T06:31:28.779Z,101106.94
2022-12-04T06:33:59.153Z,101100.19
2022-12-04T06:36:27.995Z,101098.50
2022-12-04T06:38:58.156Z,101103.38
2022-12-04T06:41:29.145Z,101100.72
2022-12-04T06:43:58.625Z,101106.09
2022-12-04T06:46:28.985Z,101100.97
2022-12-04T06:49:00.301Z,101097.41
2022-12-04T06:51:30.987Z,101093.72
2022-12-04T06:54:00.369Z,101094.38
2022-12-04T06:56:33.438Z,101099.47
2022-12-04T06:59:04.085Z,101087.50
2022-12-04T07:01:35.590Z,101094.44
2022-12-04T07:04:05.293Z,101091.91
2022-12-04T07:06:36.241Z,101083.84
2022-12-04T07:09:09.713Z,101094.34
2022-12-04T07:11:39.906Z,101091.66
2022-12-04T07:14:09.221Z,101095.28
2022-12-04T07:16:41.224Z,101096.22
2022-12-04T07:19:11.327Z,101105.00
2022-12-04T07:21:39.965Z,101100.00
2022-12-04T07:24:09.156Z,101105.13
2022-12-04T07:26:39.126Z,101102.41
2022-12-04T07:29:07.986Z,101099.84
2022-12-04T07:31:36.878Z,101106.16
2022-12-04T07:34:05.529Z,101112.16
2022-12-04T07:36:34.075Z,101110.72
2022-12-04T07:39:02.924Z,101114.31
2022-12-04T07:41:36.043Z,101110.75
2022-12-04T07:44:10.243Z,101117.59
2022-12-04T07:46:39.069Z,101112.28
2022-12-04T07:49:07.603Z,101110.66
2022-12-04T07:51:36.297Z,101110.75
2022-12-04T07:54:04.998Z,101110.88
2022-12-04T07:56:34.599Z,101113.53
2022-12-04T07:59:03.418Z,101114.53
2022-12-04T08:01:35.184Z,101123.44
2022-12-04T08:04:04.521Z,101126.34
2022-12-04T08:06:35.981Z,101120.41
2022-12-04T08:09:09.870Z,101131.00
2022-12-04T08:11:38.954Z,101067.59
2022-12-04T08:14:09.729Z,101129.44
2022-12-04T08:16:40.097Z,101131.84
2022-12-04T08:19:08.780Z,101128.25
2022-12-04T08:21:37.605Z,101128.91
2022-12-04T08:24:06.633Z,101130.72
2022-12-04T08:26:35.253Z,101126.47
2022-12-04T08:29:05.386Z,101132.78
2022-12-04T08:31:36.618Z,101134.38
2022-12-04T08:34:08.545Z,101130.09
2022-12-04T08:36:37.408Z,101131.94
2022-12-04T08:39:06.151Z,101137.28
2022-12-04T08:41:35.043Z,101132.94
2022-12-04T08:44:03.632Z,101139.09
2022-12-04T08:46:32.537Z,101125.09
2022-12-04T08:49:01.603Z,101139.78
2022-12-04T08:51:34.780Z,101135.66
2022-12-04T08:54:06.150Z,101138.16
2022-12-04T08:56:35.782Z,101132.22
2022-12-04T08:59:04.406Z,101108.59
2022-12-04T09:01:33.424Z,101136.06
2022-12-04T09:04:02.432Z,101142.50
2022-12-04T09:06:32.096Z,101134.81
2022-12-04T09:09:01.762Z,101138.25
2022-12-04T09:11:32.872Z,101122.09
2022-12-04T09:14:03.155Z,101128.91
2022-12-04T09:16:32.975Z,101132.50
2022-12-04T09:19:01.690Z,101146.47
2022-12-04T09:21:31.878Z,101135.34
2022-12-04T09:24:01.455Z,101111.00
2022-12-04T09:26:32.557Z,101103.00
2022-12-04T09:29:04.792Z,101128.47
2022-12-04T09:31:34.843Z,101124.09
2022-12-04T09:34:04.005Z,100860.00
2022-12-04T09:36:33.765Z,101120.44
2022-12-04T09:39:02.853Z,101122.63
2022-12-04T09:42:11.548Z,101105.03
2022-12-04T09:44:46.908Z,101051.25
2022-12-04T09:47:24.313Z,101123.09
2022-12-04T09:50:00.222Z,101117.88
2022-12-04T09:52:47.966Z,101095.16
2022-12-04T09:55:26.054Z,101116.31
2022-12-04T09:58:02.475Z,101106.69
2022-12-04T10:00:33.758Z,101082.09
2022-12-04T10:03:06.452Z,101099.88
2022-12-04T10:05:54.348Z,101089.38
2022-12-04T10:08:28.590Z,101108.47
2022-12-04T10:11:10.530Z,101009.13
2022-12-04T10:14:06.405Z,101094.91
2022-12-04T10:16:51.561Z,101098.66
2022-12-04T10:19:34.559Z,101100.69
2022-12-04T10:22:16.577Z,101098.41
2022-12-04T10:24:52.772Z,101102.09
2022-12-04T10:27:26.702Z,101097.69
2022-12-04T10:30:01.832Z,101065.22
2022-12-04T10:32:34.767Z,101097.56
2022-12-04T10:35:17.099Z,101107.72
2022-12-04T10:37:48.604Z,101086.88
2022-12-04T10:40:27.184Z,101098.59
2022-12-04T10:43:02.334Z,101106.63
2022-12-04T10:45:30.627Z,101106.56
2022-12-04T10:47:59.542Z,101090.28
2022-12-04T10:50:28.274Z,101110.66
2022-12-04T10:52:58.979Z,101052.59
2022-12-04T10:55:34.422Z,101109.72
2022-12-04T10:58:03.657Z,101099.88
2022-12-04T11:00:35.644Z,101097.28
2022-12-04T11:03:11.025Z,101095.47
2022-12-04T11:05:47.246Z,101085.72
2022-12-04T11:08:25.852Z,101042.88
2022-12-04T11:11:03.730Z,100997.47
2022-12-04T11:13:32.400Z,101070.47
2022-12-04T11:16:01.580Z,101075.50
2022-12-04T11:18:33.269Z,101075.16
2022-12-04T11:21:08.537Z,101070.81
2022-12-04T11:23:46.319Z,101059.63
2022-12-04T11:37:25.496Z,101036.38
2022-12-04T11:39:56.390Z,101010.13
2022-12-04T11:42:28.457Z,101040.16
2022-12-04T11:44:59.126Z,100985.84
2022-12-04T11:47:30.178Z,101027.06
2022-12-04T11:50:03.972Z,101024.94
2022-12-04T11:52:59.235Z,100995.28
2022-12-04T11:55:41.360Z,100992.41
2022-12-04T11:58:40.298Z,101019.59
2022-12-04T12:01:26.564Z,101020.66
2022-12-04T12:04:38.466Z,101027.03
2022-12-04T12:07:30.362Z,100990.75
2022-12-04T12:10:11.603Z,101026.66
2022-12-04T12:12:59.266Z,101022.03
2022-12-04T12:15:42.892Z,100999.34
2022-12-04T12:18:42.919Z,101004.72
2022-12-04T12:21:19.085Z,101032.91
2022-12-04T12:24:09.392Z,101033.72
2022-12-04T12:26:54.877Z,101024.38
2022-12-04T12:29:43.493Z,101003.28
2022-12-04T12:32:37.582Z,100944.28
2022-12-04T12:35:21.335Z,101021.78
2022-12-04T12:37:54.794Z,100876.56
2022-12-04T12:40:34.982Z,101016.53
2022-12-04T12:43:14.042Z,101017.50
2022-12-04T12:45:52.209Z,101010.44
2022-12-04T12:48:35.423Z,101019.25
2022-12-04T12:51:32.986Z,100990.28
2022-12-04T12:54:19.255Z,101018.47
2022-12-04T12:56:54.722Z,100932.13
2022-12-04T12:59:28.530Z,100993.66
2022-12-04T13:02:05.302Z,100985.72
2022-12-04T13:04:42.795Z,101018.13
2022-12-04T13:07:30.309Z,101020.88
2022-12-04T13:10:06.221Z,101010.56
2022-12-04T13:12:46.024Z,100997.53
2022-12-04T13:15:20.121Z,100970.22
2022-12-04T13:17:52.964Z,100940.59
2022-12-04T13:20:28.503Z,100982.69
2022-12-04T13:23:22.965Z,100971.19
2022-12-04T13:26:06.825Z,100991.38
2022-12-04T13:28:54.665Z,100991.44
2022-12-04T13:31:36.644Z,100984.41
2022-12-04T13:34:40.181Z,100960.88
2022-12-04T13:37:40.053Z,100946.53
2022-12-04T13:40:34.342Z,100959.00
2022-12-04T13:43:33.301Z,100932.78
2022-12-04T13:46:06.139Z,100961.63
2022-12-04T13:48:40.709Z,100848.38
2022-12-04T13:51:35.750Z,100962.56
2022-12-04T13:54:25.336Z,100959.03
2022-12-04T13:56:55.920Z,100946.91
2022-12-04T13:59:40.416Z,100910.69
2022-12-04T14:02:35.333Z,100968.72
2022-12-04T14:05:09.779Z,100967.97
2022-12-04T14:07:41.458Z,100953.03
2022-12-04T14:10:30.061Z,100961.78
2022-12-04T14:13:04.111Z,100928.25
2022-12-04T14:15:37.247Z,100967.88
2022-12-04T14:18:21.507Z,100793.94
2022-12-04T14:21:02.267Z,100854.59
2022-12-04T14:23:39.044Z,100967.94
2022-12-04T14:26:19.762Z,100958.38
2022-12-04T14:28:48.932Z,100963.59
2022-12-04T14:31:40.624Z,100971.56
2022-12-04T14:34:24.033Z,100973.25
2022-12-04T14:36:57.747Z,100907.31
2022-12-04T14:39:31.049Z,100856.28
2022-12-04T14:42:13.997Z,100917.81
2022-12-04T14:44:45.241Z,100975.00
2022-12-04T14:47:37.866Z,100938.03
2022-12-04T14:50:26.711Z,100984.44
2022-12-04T14:53:06.993Z,100935.28
2022-12-04T14:55:47.851Z,100886.81
2022-12-04T14:58:34.783Z,100988.78
2022-12-04T15:01:07.006Z,100967.75
2022-12-04T15:03:43.797Z,100977.44
2022-12-04T15:06:21.947Z,100977.53
2022-12-04T15:09:15.565Z,100855.38
2022-12-04T15:12:08.978Z,100978.41
2022-12-04T15:14:42.536Z,100933.53
2022-12-04T15:17:12.484Z,100984.59
2022-12-04T15:19:41.325Z,100980.22
2022-12-04T15:22:23.433Z,100979.31
2022-12-04T15:24:55.242Z,100981.03
2022-12-04T15:27:32.314Z,100861.47
2022-12-04T15:30:04.294Z,100991.47
2022-12-04T15:32:34.527Z,100962.56
2022-12-04T15:35:09.622Z,100983.72
2022-12-04T15:37:38.815Z,100985.44
2022-12-04T15:40:11.903Z,100984.59
2022-12-04T15:42:40.782Z,100994.19
2022-12-04T15:45:34.330Z,100988.97
2022-12-04T15:48:03.263Z,100982.81
2022-12-04T15:50:32.434Z,100985.47
2022-12-04T15:53:09.919Z,100976.75
2022-12-04T15:55:49.712Z,100916.97
2022-12-04T15:58:23.458Z,100947.72
2022-12-04T16:00:59.285Z,100897.59
2022-12-04T16:03:32.149Z,100976.81
2022-12-04T16:06:16.042Z,100961.00
2022-12-04T16:08:48.149Z,100970.72
2022-12-04T16:11:34.569Z,100967.19
2022-12-04T16:14:20.656Z,100968.06
2022-12-04T16:16:52.919Z,100967.16
2022-12-04T16:19:33.607Z,100955.69
2022-12-04T16:22:05.103Z,100960.09
2022-12-04T16:24:33.715Z,100943.34
2022-12-04T16:27:05.435Z,100945.03
2022-12-04T16:29:34.051Z,100961.78
2022-12-04T16:32:03.584Z,100957.41
2022-12-04T16:34:32.813Z,100955.63
2022-12-04T16:37:02.300Z,100955.59
2022-12-04T16:39:30.919Z,100952.03
2022-12-04T16:41:59.964Z,100954.63
2022-12-04T16:44:30.265Z,100954.53
2022-12-04T16:46:59.034Z,100957.91
2022-12-04T16:49:27.966Z,100949.16
2022-12-04T16:51:56.916Z,100950.84
2022-12-04T16:54:25.734Z,100952.53
2022-12-04T16:56:54.630Z,100942.91
2022-12-04T16:59:23.702Z,100912.97
2022-12-04T17:01:54.183Z,100902.44
2022-12-04T17:04:23.101Z,100940.22
2022-12-04T17:06:55.195Z,100936.75
2022-12-04T17:09:23.659Z,100937.59
2022-12-04T17:11:52.519Z,100809.22
2022-12-04T17:14:21.905Z,100941.03
2022-12-04T17:16:52.160Z,100947.97
2022-12-04T17:19:21.957Z,100937.50
2022-12-04T17:21:51.243Z,100950.69
2022-12-04T17:24:19.611Z,100928.69
2022-12-04T17:26:48.522Z,100942.91
2022-12-04T17:29:17.462Z,100943.81
2022-12-04T17:31:46.205Z,100942.16
2022-12-04T17:34:15.167Z,100938.72
2022-12-04T17:36:45.111Z,100943.09
2022-12-04T17:39:14.114Z,100935.28
2022-12-04T17:41:42.721Z,100936.22
2022-12-04T17:44:11.330Z,100937.06
2022-12-04T17:46:40.041Z,100936.22
2022-12-04T17:49:08.694Z,100865.97
2022-12-04T17:51:37.770Z,100938.91
2022-12-04T17:54:08.749Z,100731.63
2022-12-04T17:56:37.472Z,100938.06
2022-12-04T17:59:07.245Z,100927.69
2022-12-04T18:01:35.669Z,100906.50
2022-12-04T18:04:09.159Z,100911.94
2022-12-04T18:06:40.828Z,100919.84
2022-12-04T18:09:14.808Z,100922.56
2022-12-04T18:11:47.917Z,100924.34
2022-12-04T18:14:21.996Z,100922.59
2022-12-04T18:16:54.600Z,100895.34
2022-12-04T18:19:26.048Z,100917.47
2022-12-04T18:21:56.035Z,100888.38
2022-12-04T18:24:27.917Z,100928.78
2022-12-04T18:26:56.704Z,100929.66
2022-12-04T18:29:27.423Z,100930.56
2022-12-04T18:31:56.309Z,100927.09
2022-12-04T18:34:25.844Z,100927.13
2022-12-04T18:36:54.941Z,100918.38
2022-12-04T18:39:27.188Z,100922.75
2022-12-04T18:41:57.283Z,100923.66
2022-12-04T18:44:26.734Z,100925.44
2022-12-04T18:46:55.802Z,100919.31
2022-12-04T18:49:24.591Z,100923.66
2022-12-04T18:51:53.608Z,100927.28
2022-12-04T18:54:26.478Z,100906.19
2022-12-04T18:56:55.753Z,100929.03
2022-12-04T18:59:26.452Z,100877.16
2022-12-04T19:01:56.330Z,100870.16
2022-12-04T19:04:26.977Z,100915.91
2022-12-04T19:06:57.242Z,100931.63
2022-12-04T19:10:08.973Z,100938.69
2022-12-04T19:12:20.018Z,100925.72
2022-12-04T19:14:48.647Z,100930.94
2022-12-04T19:17:17.733Z,100927.44
2022-12-04T19:19:46.676Z,100929.25
2022-12-04T19:22:16.631Z,100928.38
2022-12-04T19:24:47.920Z,100929.25
2022-12-04T19:27:17.355Z,100923.94
2022-12-04T19:29:45.939Z,100925.72
2022-12-04T19:32:15.199Z,100922.19
2022-12-04T19:34:44.334Z,100921.38
2022-12-04T19:37:13.722Z,100925.78
2022-12-04T19:39:42.845Z,100889.78
2022-12-04T19:42:12.965Z,100861.75
2022-12-04T19:44:49.813Z,100932.00
2022-12-04T19:47:19.166Z,100929.41
2022-12-04T19:49:48.242Z,100935.44
2022-12-04T19:52:17.556Z,100933.66
2022-12-04T19:54:46.586Z,100922.22
2022-12-04T19:57:16.980Z,100902.91
2022-12-04T19:59:46.754Z,100939.75
2022-12-04T20:02:16.365Z,100947.63
2022-12-04T20:04:45.323Z,100928.38
2022-12-04T20:07:14.303Z,100941.59
2022-12-04T20:09:55.120Z,100931.09
2022-12-04T20:12:25.027Z,100936.34
2022-12-04T20:14:53.924Z,100939.75
2022-12-04T20:17:22.662Z,100939.75
2022-12-04T20:19:51.023Z,100945.91
2022-12-04T20:22:19.747Z,100930.16
2022-12-04T20:24:48.896Z,100927.59
2022-12-04T20:27:17.573Z,100938.13
2022-12-04T20:29:50.038Z,100935.56
2022-12-04T20:32:18.904Z,100928.56
2022-12-04T20:34:47.598Z,100924.13
2022-12-04T20:37:16.260Z,100924.91
2022-12-04T20:39:45.107Z,100768.66
2022-12-04T20:42:14.739Z,100919.72
2022-12-04T20:44:43.495Z,100925.78
2022-12-04T20:47:13.343Z,100896.88
2022-12-04T20:49:42.370Z,100915.38
2022-12-04T20:52:11.164Z,100918.97
2022-12-04T20:54:41.780Z,100913.75
2022-12-04T20:57:10.731Z,100918.00
2022-12-04T20:59:39.338Z,100915.41
2022-12-04T21:02:08.392Z,100916.28
2022-12-04T21:04:41.844Z,100910.19
2022-12-04T21:07:10.684Z,100902.34
2022-12-04T21:09:40.829Z,100906.72
2022-12-04T21:12:43.284Z,100904.91
2022-12-04T21:15:29.314Z,100877.66
2022-12-04T21:18:01.138Z,100908.41
2022-12-04T21:20:30.919Z,100914.56
2022-12-04T21:22:59.490Z,100903.19
2022-12-04T21:25:28.214Z,100907.53
2022-12-04T21:27:56.848Z,100907.50
2022-12-04T21:30:25.400Z,100896.13
2022-12-04T21:32:54.074Z,100897.88
2022-12-04T21:35:22.746Z,100906.59
2022-12-04T21:37:52.514Z,100856.56
2022-12-04T21:40:21.183Z,100910.94
2022-12-04T21:42:49.776Z,100902.22
2022-12-04T21:45:18.355Z,100901.28
2022-12-04T21:47:47.035Z,100902.16
2022-12-04T21:50:15.684Z,100908.25
2022-12-04T21:52:44.273Z,100906.50
2022-12-04T21:55:13.973Z,100868.69
2022-12-04T21:57:42.568Z,100902.19
2022-12-04T22:00:12.308Z,100879.44
2022-12-04T22:02:41.037Z,100899.50
2022-12-04T22:05:10.151Z,100698.53
2022-12-04T22:07:38.820Z,100910.09
2022-12-04T22:10:11.001Z,100848.56
2022-12-04T22:12:49.556Z,100908.16
2022-12-04T22:15:19.825Z,100907.38
2022-12-04T22:17:48.387Z,100903.00
2022-12-04T22:20:17.650Z,100895.97
2022-12-04T22:22:46.258Z,100902.13
2022-12-04T22:25:15.334Z,100903.94
2022-12-04T22:27:45.335Z,100903.09
2022-12-04T22:30:15.044Z,100906.56
2022-12-04T22:32:43.736Z,100900.50
2022-12-04T22:35:12.532Z,100900.50
2022-12-04T22:37:44.590Z,100902.22
2022-12-04T22:40:15.938Z,100906.59
2022-12-04T22:42:45.957Z,100807.41
2022-12-04T22:45:14.620Z,100899.50
2022-12-04T22:47:42.996Z,100892.47
2022-12-04T22:50:12.874Z,100882.94
2022-12-04T22:52:41.566Z,100887.38
2022-12-04T22:55:10.492Z,100891.75
2022-12-04T22:57:39.146Z,100890.88
2022-12-04T23:00:10.791Z,100883.00
2022-12-04T23:02:39.495Z,100882.06
2022-12-04T23:05:08.457Z,100739.00
2022-12-04T23:07:37.442Z,100865.41
2022-12-04T23:10:07.778Z,100849.53
2022-12-04T23:12:36.532Z,100880.28
2022-12-04T23:15:05.459Z,100883.75
2022-12-04T23:17:35.219Z,100786.34
2022-12-04T23:20:03.925Z,100867.09
2022-12-04T23:22:32.558Z,100873.19
2022-12-04T23:25:01.432Z,100869.66
2022-12-04T23:27:31.817Z,100868.81
2022-12-04T23:30:00.489Z,100870.59
2022-12-04T23:32:29.089Z,100869.78
2022-12-04T23:34:58.796Z,100868.97
2022-12-04T23:37:27.475Z,100863.69
2022-12-04T23:39:56.448Z,100857.53
2022-12-04T23:42:25.367Z,100862.78
2022-12-04T23:44:53.965Z,100866.22
2022-12-04T23:47:22.552Z,100853.97
2022-12-04T23:49:51.194Z,100844.25
2022-12-04T23:52:20.844Z,100850.38
2022-12-04T23:54:49.438Z,100855.63
2022-12-04T23:57:18.062Z,100846.03
2022-12-04T23:59:46.672Z,100852.13
